sensor_id;sensor_type;location;lat;lon;timestamp;pressure;altitude;pressure_sealevel;temperature;humidity
8717;BME280;4395;48.554;8.820;2023-02-10T00:01:40;97616.81;;;-1.76;100.00
8717;BME280;4395;48.554;8.820;2023-02-10T00:03:44;97578.03;;;-2.04;100.00
8717;BME280;4395;48.554;8.820;2023-02-10T00:05:46;97613.50;;;-1.78;100.00
8717;BME280;4395;48.554;8.820;2023-02-10T00:07:49;97537.56;;;-2.34;100.00
8717;BME280;4395;48.554;8.820;2023-02-10T00:09:53;97620.84;;;-1.81;100.00
8717;BME280;4395;48.554;8.820;2023-02-10T00:11:56;97625.94;;;-1.89;100.00
8717;BME280;4395;48.554;8.820;2023-02-10T00:14:01;97626.19;;;-1.92;100.00
8717;BME280;4395;48.554;8.820;2023-02-10T00:16:05;97626.47;;;-1.96;100.00
8717;BME280;4395;48.554;8.820;2023-02-10T00:18:09;97569.69;;;-2.61;100.00
8717;BME280;4395;48.554;8.820;2023-02-10T00:20:11;97632.88;;;-2.19;100.00
8717;BME280;4395;48.554;8.820;2023-02-10T00:22:17;97463.69;;;-3.56;100.00
8717;BME280;4395;48.554;8.820;2023-02-10T00:24:20;97535.81;;;-2.96;100.00
8717;BME280;4395;48.554;8.820;2023-02-10T00:26:26;97568.94;;;-2.72;100.00
8717;BME280;4395;48.554;8.820;2023-02-10T00:28:29;97616.06;;;-2.28;100.00
8717;BME280;4395;48.554;8.820;2023-02-10T00:30:31;97556.44;;;-2.59;100.00
8717;BME280;4395;48.554;8.820;2023-02-10T00:32:34;97570.00;;;-2.33;100.00
8717;BME280;4395;48.554;8.820;2023-02-10T00:34:38;97603.59;;;-2.25;100.00
8717;BME280;4395;48.554;8.820;2023-02-10T00:36:41;97550.69;;;-2.64;100.00
8717;BME280;4395;48.554;8.820;2023-02-10T00:38:44;97609.56;;;-2.23;100.00
8717;BME280;4395;48.554;8.820;2023-02-10T00:40:47;97612.19;;;-2.23;100.00
8717;BME280;4395;48.554;8.820;2023-02-10T00:49:48;97614.22;;;-2.57;100.00
8717;BME280;4395;48.554;8.820;2023-02-10T00:51:50;97631.34;;;-2.63;100.00
8717;BME280;4395;48.554;8.820;2023-02-10T00:53:53;97613.16;;;-2.66;100.00
8717;BME280;4395;48.554;8.820;2023-02-10T00:55:57;97634.34;;;-2.68;100.00
8717;BME280;4395;48.554;8.820;2023-02-10T00:58:00;97628.84;;;-2.65;100.00
8717;BME280;4395;48.554;8.820;2023-02-10T01:00:04;97632.44;;;-2.66;100.00
8717;BME280;4395;48.554;8.820;2023-02-10T01:02:08;97635.63;;;-2.62;100.00
8717;BME280;4395;48.554;8.820;2023-02-10T01:04:12;97637.94;;;-2.69;100.00
8717;BME280;4395;48.554;8.820;2023-02-10T01:06:16;97596.09;;;-2.93;100.00
8717;BME280;4395;48.554;8.820;2023-02-10T01:08:19;97613.59;;;-2.82;100.00
8717;BME280;4395;48.554;8.820;2023-02-10T01:10:22;97594.47;;;-3.05;100.00
8717;BME280;4395;48.554;8.820;2023-02-10T01:12:24;97645.91;;;-2.80;100.00
8717;BME280;4395;48.554;8.820;2023-02-10T01:14:27;97641.34;;;-2.78;100.00
8717;BME280;4395;48.554;8.820;2023-02-10T01:16:30;97631.41;;;-2.74;100.00
8717;BME280;4395;48.554;8.820;2023-02-10T01:18:33;97635.63;;;-2.83;100.00
8717;BME280;4395;48.554;8.820;2023-02-10T01:20:38;97648.97;;;-2.96;100.00
8717;BME280;4395;48.554;8.820;2023-02-10T01:22:43;97626.16;;;-3.06;100.00
8717;BME280;4395;48.554;8.820;2023-02-10T01:24:45;97612.09;;;-3.16;100.00
8717;BME280;4395;48.554;8.820;2023-02-10T01:26:49;97645.16;;;-3.03;100.00
8717;BME280;4395;48.554;8.820;2023-02-10T01:28:52;97653.19;;;-3.04;100.00
8717;BME280;4395;48.554;8.820;2023-02-10T01:30:55;97648.16;;;-3.07;100.00
8717;BME280;4395;48.554;8.820;2023-02-10T01:32:57;97655.09;;;-3.06;100.00
8717;BME280;4395;48.554;8.820;2023-02-10T01:35:00;97667.66;;;-3.10;100.00
8717;BME280;4395;48.554;8.820;2023-02-10T01:37:04;97634.63;;;-3.35;100.00
8717;BME280;4395;48.554;8.820;2023-02-10T01:39:08;97665.78;;;-3.19;100.00
8717;BME280;4395;48.554;8.820;2023-02-10T01:41:11;97648.34;;;-3.20;100.00
8717;BME280;4395;48.554;8.820;2023-02-10T01:43:20;97659.69;;;-3.19;100.00
8717;BME280;4395;48.554;8.820;2023-02-10T01:45:26;97650.13;;;-3.20;100.00
8717;BME280;4395;48.554;8.820;2023-02-10T01:47:31;97662.06;;;-3.16;100.00
8717;BME280;4395;48.554;8.820;2023-02-10T01:49:36;97661.25;;;-3.28;100.00
8717;BME280;4395;48.554;8.820;2023-02-10T01:51:44;97647.19;;;-3.38;100.00
8717;BME280;4395;48.554;8.820;2023-02-10T01:53:48;97650.06;;;-3.41;100.00
8717;BME280;4395;48.554;8.820;2023-02-10T01:55:55;97608.53;;;-3.70;100.00
8717;BME280;4395;48.554;8.820;2023-02-10T01:57:59;97662.16;;;-3.50;100.00
8717;BME280;4395;48.554;8.820;2023-02-10T02:00:05;97629.78;;;-3.62;100.00
8717;BME280;4395;48.554;8.820;2023-02-10T02:02:14;97640.03;;;-3.47;100.00
8717;BME280;4395;48.554;8.820;2023-02-10T02:04:18;97584.22;;;-3.94;100.00
8717;BME280;4395;48.554;8.820;2023-02-10T02:06:21;97643.88;;;-3.51;100.00
8717;BME280;4395;48.554;8.820;2023-02-10T02:08:26;97569.19;;;-4.14;100.00
8717;BME280;4395;48.554;8.820;2023-02-10T02:10:54;97500.34;;;-4.29;100.00
8717;BME280;4395;48.554;8.820;2023-02-10T02:13:04;97659.84;;;-3.32;100.00
8717;BME280;4395;48.554;8.820;2023-02-10T02:15:15;97653.03;;;-3.35;100.00
8717;BME280;4395;48.554;8.820;2023-02-10T02:17:27;97658.91;;;-3.42;100.00
8717;BME280;4395;48.554;8.820;2023-02-10T02:20:00;97567.75;;;-3.96;100.00
8717;BME280;4395;48.554;8.820;2023-02-10T02:22:43;97653.16;;;-3.36;100.00
8717;BME280;4395;48.554;8.820;2023-02-10T02:25:09;97556.06;;;-4.14;100.00
8717;BME280;4395;48.554;8.820;2023-02-10T02:27:33;97666.56;;;-3.50;100.00
8717;BME280;4395;48.554;8.820;2023-02-10T02:30:01;97585.66;;;-4.12;100.00
8717;BME280;4395;48.554;8.820;2023-02-10T02:32:12;97656.31;;;-3.65;100.00
8717;BME280;4395;48.554;8.820;2023-02-10T02:34:22;97623.84;;;-3.86;100.00
8717;BME280;4395;48.554;8.820;2023-02-10T02:36:30;97668.50;;;-3.52;100.00
8717;BME280;4395;48.554;8.820;2023-02-10T02:38:37;97672.53;;;-3.48;100.00
8717;BME280;4395;48.554;8.820;2023-02-10T02:40:40;97639.84;;;-3.78;100.00
8717;BME280;4395;48.554;8.820;2023-02-10T02:42:44;97698.13;;;-3.50;100.00
8717;BME280;4395;48.554;8.820;2023-02-10T02:44:50;97667.16;;;-3.47;100.00
8717;BME280;4395;48.554;8.820;2023-02-10T02:46:58;97577.78;;;-4.01;100.00
8717;BME280;4395;48.554;8.820;2023-02-10T02:49:12;97653.66;;;-3.42;100.00
8717;BME280;4395;48.554;8.820;2023-02-10T02:51:21;97600.59;;;-4.24;100.00
8717;BME280;4395;48.554;8.820;2023-02-10T02:53:31;97638.75;;;-3.64;100.00
8717;BME280;4395;48.554;8.820;2023-02-10T02:55:49;97662.75;;;-3.46;100.00
8717;BME280;4395;48.554;8.820;2023-02-10T02:58:00;97673.50;;;-3.49;100.00
8717;BME280;4395;48.554;8.820;2023-02-10T03:00:08;97548.91;;;-4.35;100.00
8717;BME280;4395;48.554;8.820;2023-02-10T03:02:14;97681.16;;;-3.58;100.00
8717;BME280;4395;48.554;8.820;2023-02-10T03:08:18;97680.22;;;-3.90;100.00
8717;BME280;4395;48.554;8.820;2023-02-10T03:10:21;97690.84;;;-4.03;100.00
8717;BME280;4395;48.554;8.820;2023-02-10T03:12:24;97689.06;;;-4.02;100.00
8717;BME280;4395;48.554;8.820;2023-02-10T03:14:27;97685.69;;;-4.15;100.00
8717;BME280;4395;48.554;8.820;2023-02-10T03:16:30;97682.84;;;-4.01;100.00
8717;BME280;4395;48.554;8.820;2023-02-10T03:18:32;97685.00;;;-3.95;100.00
8717;BME280;4395;48.554;8.820;2023-02-10T03:20:35;97679.03;;;-3.97;100.00
8717;BME280;4395;48.554;8.820;2023-02-10T03:22:38;97657.53;;;-4.13;100.00
8717;BME280;4395;48.554;8.820;2023-02-10T03:24:42;97685.72;;;-3.93;100.00
8717;BME280;4395;48.554;8.820;2023-02-10T03:26:44;97682.97;;;-3.80;100.00
8717;BME280;4395;48.554;8.820;2023-02-10T03:28:47;97677.59;;;-3.79;100.00
8717;BME280;4395;48.554;8.820;2023-02-10T03:30:50;97687.88;;;-3.87;100.00
8717;BME280;4395;48.554;8.820;2023-02-10T03:32:54;97681.19;;;-3.80;100.00
8717;BME280;4395;48.554;8.820;2023-02-10T03:34:56;97677.94;;;-3.72;100.00
8717;BME280;4395;48.554;8.820;2023-02-10T03:37:00;97693.84;;;-3.63;100.00
8717;BME280;4395;48.554;8.820;2023-02-10T03:39:03;97682.34;;;-3.50;100.00
8717;BME280;4395;48.554;8.820;2023-02-10T03:41:08;97699.56;;;-3.46;100.00
8717;BME280;4395;48.554;8.820;2023-02-10T03:43:10;97703.59;;;-3.42;100.00
8717;BME280;4395;48.554;8.820;2023-02-10T03:45:13;97705.53;;;-3.44;100.00
8717;BME280;4395;48.554;8.820;2023-02-10T03:47:16;97689.63;;;-3.43;100.00
8717;BME280;4395;48.554;8.820;2023-02-10T03:49:19;97690.47;;;-3.53;100.00
8717;BME280;4395;48.554;8.820;2023-02-10T03:51:22;97685.72;;;-3.60;100.00
8717;BME280;4395;48.554;8.820;2023-02-10T03:53:25;97685.81;;;-3.61;100.00
8717;BME280;4395;48.554;8.820;2023-02-10T03:55:28;97695.38;;;-3.60;100.00
8717;BME280;4395;48.554;8.820;2023-02-10T03:57:32;97690.50;;;-3.65;100.00
8717;BME280;4395;48.554;8.820;2023-02-10T03:59:35;97696.09;;;-3.58;100.00
8717;BME280;4395;48.554;8.820;2023-02-10T04:01:38;97707.44;;;-3.58;100.00
8717;BME280;4395;48.554;8.820;2023-02-10T04:03:41;97671.38;;;-3.89;100.00
8717;BME280;4395;48.554;8.820;2023-02-10T04:05:44;97705.28;;;-3.52;100.00
8717;BME280;4395;48.554;8.820;2023-02-10T04:07:48;97690.72;;;-3.68;100.00
8717;BME280;4395;48.554;8.820;2023-02-10T04:09:50;97677.34;;;-3.76;100.00
8717;BME280;4395;48.554;8.820;2023-02-10T04:11:53;97715.56;;;-3.61;100.00
8717;BME280;4395;48.554;8.820;2023-02-10T04:13:57;97710.69;;;-3.65;100.00
8717;BME280;4395;48.554;8.820;2023-02-10T04:16:02;97713.66;;;-3.70;100.00
8717;BME280;4395;48.554;8.820;2023-02-10T04:18:04;97711.50;;;-3.65;100.00
8717;BME280;4395;48.554;8.820;2023-02-10T04:20:08;97690.97;;;-3.82;100.00
8717;BME280;4395;48.554;8.820;2023-02-10T04:22:11;97717.84;;;-3.67;100.00
8717;BME280;4395;48.554;8.820;2023-02-10T04:24:14;97713.66;;;-3.70;100.00
8717;BME280;4395;48.554;8.820;2023-02-10T04:26:17;97713.66;;;-3.70;100.00
8717;BME280;4395;48.554;8.820;2023-02-10T04:28:20;97717.00;;;-3.79;100.00
8717;BME280;4395;48.554;8.820;2023-02-10T04:30:24;97691.09;;;-3.83;100.00
8717;BME280;4395;48.554;8.820;2023-02-10T04:32:27;97569.91;;;-4.57;100.00
8717;BME280;4395;48.554;8.820;2023-02-10T04:34:30;97635.31;;;-4.21;100.00
8717;BME280;4395;48.554;8.820;2023-02-10T04:36:32;97717.50;;;-3.85;100.00
8717;BME280;4395;48.554;8.820;2023-02-10T04:38:35;97706.13;;;-3.85;100.00
8717;BME280;4395;48.554;8.820;2023-02-10T04:40:38;97708.41;;;-3.92;100.00
8717;BME280;4395;48.554;8.820;2023-02-10T04:42:41;97703.38;;;-3.95;100.00
8717;BME280;4395;48.554;8.820;2023-02-10T04:44:44;97706.00;;;-3.95;100.00
8717;BME280;4395;48.554;8.820;2023-02-10T04:46:48;97703.03;;;-4.02;100.00
8717;BME280;4395;48.554;8.820;2023-02-10T04:48:52;97640.53;;;-4.54;100.00
8717;BME280;4395;48.554;8.820;2023-02-10T04:50:55;97705.06;;;-4.05;100.00
8717;BME280;4395;48.554;8.820;2023-02-10T04:52:58;97709.34;;;-4.04;100.00
8717;BME280;4395;48.554;8.820;2023-02-10T04:55:01;97713.16;;;-4.08;100.00
8717;BME280;4395;48.554;8.820;2023-02-10T04:57:04;97721.28;;;-4.11;100.00
8717;BME280;4395;48.554;8.820;2023-02-10T04:59:06;97720.69;;;-4.15;100.00
8717;BME280;4395;48.554;8.820;2023-02-10T05:01:09;97715.66;;;-4.18;100.00
8717;BME280;4395;48.554;8.820;2023-02-10T05:03:14;97713.63;;;-4.14;100.00
8717;BME280;4395;48.554;8.820;2023-02-10T05:05:17;97566.41;;;-5.26;100.00
8717;BME280;4395;48.554;8.820;2023-02-10T05:07:20;97711.97;;;-4.15;100.00
8717;BME280;4395;48.554;8.820;2023-02-10T05:09:23;97631.94;;;-5.02;100.00
8717;BME280;4395;48.554;8.820;2023-02-10T05:11:25;97722.22;;;-4.12;100.00
8717;BME280;4395;48.554;8.820;2023-02-10T05:13:28;97713.78;;;-4.05;100.00
8717;BME280;4395;48.554;8.820;2023-02-10T05:15:31;97689.88;;;-4.24;100.00
8717;BME280;4395;48.554;8.820;2023-02-10T05:17:34;97718.56;;;-3.99;100.00
8717;BME280;4395;48.554;8.820;2023-02-10T05:19:38;97719.84;;;-4.04;100.00
8717;BME280;4395;48.554;8.820;2023-02-10T05:21:41;97739.69;;;-4.00;100.00
8717;BME280;4395;48.554;8.820;2023-02-10T05:23:44;97744.81;;;-3.99;100.00
8717;BME280;4395;48.554;8.820;2023-02-10T05:25:47;97744.44;;;-4.16;100.00
8717;BME280;4395;48.554;8.820;2023-02-10T05:27:50;97739.91;;;-4.14;100.00
8717;BME280;4395;48.554;8.820;2023-02-10T05:29:53;97735.13;;;-4.09;100.00
8717;BME280;4395;48.554;8.820;2023-02-10T05:31:56;97738.38;;;-4.06;100.00
8717;BME280;4395;48.554;8.820;2023-02-10T05:33:59;97732.16;;;-3.94;100.00
8717;BME280;4395;48.554;8.820;2023-02-10T05:36:03;97734.91;;;-3.95;100.00
8717;BME280;4395;48.554;8.820;2023-02-10T05:38:07;97735.88;;;-3.96;100.00
8717;BME280;4395;48.554;8.820;2023-02-10T05:40:10;97715.53;;;-4.16;100.00
8717;BME280;4395;48.554;8.820;2023-02-10T05:42:13;97617.84;;;-4.77;100.00
8717;BME280;4395;48.554;8.820;2023-02-10T05:44:16;97749.56;;;-4.15;100.00
8717;BME280;4395;48.554;8.820;2023-02-10T05:46:18;97571.22;;;-5.20;100.00
8717;BME280;4395;48.554;8.820;2023-02-10T05:48:22;97741.56;;;-4.13;100.00
8717;BME280;4395;48.554;8.820;2023-02-10T05:50:26;97755.41;;;-4.23;100.00
8717;BME280;4395;48.554;8.820;2023-02-10T05:52:30;97751.81;;;-4.22;100.00
8717;BME280;4395;48.554;8.820;2023-02-10T05:54:32;97749.19;;;-4.22;100.00
8717;BME280;4395;48.554;8.820;2023-02-10T05:56:36;97757.69;;;-4.18;100.00
8717;BME280;4395;48.554;8.820;2023-02-10T05:58:39;97762.31;;;-4.22;100.00
8717;BME280;4395;48.554;8.820;2023-02-10T06:00:42;97760.72;;;-4.35;100.00
8717;BME280;4395;48.554;8.820;2023-02-10T06:02:45;97767.50;;;-4.44;100.00
8717;BME280;4395;48.554;8.820;2023-02-10T06:04:47;97769.75;;;-4.50;100.00
8717;BME280;4395;48.554;8.820;2023-02-10T06:06:50;97761.53;;;-4.46;100.00
8717;BME280;4395;48.554;8.820;2023-02-10T06:08:54;97673.84;;;-4.90;100.00
8717;BME280;4395;48.554;8.820;2023-02-10T06:10:57;97764.13;;;-4.22;100.00
8717;BME280;4395;48.554;8.820;2023-02-10T06:13:00;97776.06;;;-4.18;100.00
8717;BME280;4395;48.554;8.820;2023-02-10T06:15:03;97666.69;;;-4.88;100.00
8717;BME280;4395;48.554;8.820;2023-02-10T06:17:06;97767.31;;;-4.30;100.00
8717;BME280;4395;48.554;8.820;2023-02-10T06:19:10;97777.41;;;-4.71;100.00
8717;BME280;4395;48.554;8.820;2023-02-10T06:21:13;97764.63;;;-4.76;100.00
8717;BME280;4395;48.554;8.820;2023-02-10T06:23:16;97775.75;;;-4.72;100.00
8717;BME280;4395;48.554;8.820;2023-02-10T06:25:20;97769.75;;;-4.74;100.00
8717;BME280;4395;48.554;8.820;2023-02-10T06:27:23;97721.78;;;-5.24;100.00
8717;BME280;4395;48.554;8.820;2023-02-10T06:29:26;97781.53;;;-4.80;100.00
8717;BME280;4395;48.554;8.820;2023-02-10T06:31:28;97663.56;;;-5.40;100.00
8717;BME280;4395;48.554;8.820;2023-02-10T06:33:31;97786.34;;;-4.50;100.00
8717;BME280;4395;48.554;8.820;2023-02-10T06:35:36;97776.09;;;-4.42;100.00
8717;BME280;4395;48.554;8.820;2023-02-10T06:37:39;97779.00;;;-4.34;100.00
8717;BME280;4395;48.554;8.820;2023-02-10T06:39:42;97732.84;;;-4.60;100.00
8717;BME280;4395;48.554;8.820;2023-02-10T06:41:46;97656.56;;;-5.16;100.00
8717;BME280;4395;48.554;8.820;2023-02-10T06:43:48;97783.41;;;-4.34;100.00
8717;BME280;4395;48.554;8.820;2023-02-10T06:45:52;97795.47;;;-4.32;100.00
8717;BME280;4395;48.554;8.820;2023-02-10T06:47:55;97793.22;;;-4.25;100.00
8717;BME280;4395;48.554;8.820;2023-02-10T06:49:58;97798.59;;;-4.27;100.00
8717;BME280;4395;48.554;8.820;2023-02-10T06:52:01;97795.47;;;-4.32;100.00
8717;BME280;4395;48.554;8.820;2023-02-10T06:54:17;97770.81;;;-4.53;100.00
8717;BME280;4395;48.554;8.820;2023-02-10T06:56:19;97737.22;;;-4.72;100.00
8717;BME280;4395;48.554;8.820;2023-02-10T06:58:24;97800.34;;;-4.38;100.00
8717;BME280;4395;48.554;8.820;2023-02-10T07:00:27;97807.16;;;-4.36;100.00
8717;BME280;4395;48.554;8.820;2023-02-10T07:02:30;97787.56;;;-4.43;100.00
8717;BME280;4395;48.554;8.820;2023-02-10T07:04:32;97801.97;;;-4.13;100.00
8717;BME280;4395;48.554;8.820;2023-02-10T07:06:35;97811.06;;;-4.06;100.00
8717;BME280;4395;48.554;8.820;2023-02-10T07:08:38;97817.06;;;-3.93;100.00
8717;BME280;4395;48.554;8.820;2023-02-10T07:10:41;97726.13;;;-4.40;100.00
8717;BME280;4395;48.554;8.820;2023-02-10T07:12:44;97796.19;;;-3.83;100.00
8717;BME280;4395;48.554;8.820;2023-02-10T07:14:49;97787.34;;;-3.82;100.00
8717;BME280;4395;48.554;8.820;2023-02-10T07:16:52;97807.34;;;-3.46;100.00
8717;BME280;4395;48.554;8.820;2023-02-10T07:18:55;97807.34;;;-3.35;100.00
8717;BME280;4395;48.554;8.820;2023-02-10T07:20:57;97811.28;;;-3.30;100.00
8717;BME280;4395;48.554;8.820;2023-02-10T07:23:00;97775.31;;;-3.40;100.00
8717;BME280;4395;48.554;8.820;2023-02-10T07:25:03;97814.28;;;-3.23;100.00
8717;BME280;4395;48.554;8.820;2023-02-10T07:27:06;97815.59;;;-3.17;100.00
8717;BME280;4395;48.554;8.820;2023-02-10T07:29:09;97779.97;;;-3.33;100.00
8717;BME280;4395;48.554;8.820;2023-02-10T07:31:13;97758.81;;;-3.42;100.00
8717;BME280;4395;48.554;8.820;2023-02-10T07:33:16;97812.34;;;-3.10;100.00
8717;BME280;4395;48.554;8.820;2023-02-10T07:35:19;97816.75;;;-2.99;100.00
8717;BME280;4395;48.554;8.820;2023-02-10T07:37:24;97816.88;;;-3.01;100.00
8717;BME280;4395;48.554;8.820;2023-02-10T07:39:28;97822.75;;;-2.97;100.00
8717;BME280;4395;48.554;8.820;2023-02-10T07:41:30;97797.66;;;-3.12;100.00
8717;BME280;4395;48.554;8.820;2023-02-10T07:43:34;97820.22;;;-2.87;100.00
8717;BME280;4395;48.554;8.820;2023-02-10T07:45:46;97833.72;;;-2.81;100.00
8717;BME280;4395;48.554;8.820;2023-02-10T07:47:53;97827.84;;;-2.73;100.00
8717;BME280;4395;48.554;8.820;2023-02-10T07:49:56;97827.22;;;-2.66;100.00
8717;BME280;4395;48.554;8.820;2023-02-10T07:51:59;97802.38;;;-2.73;100.00
8717;BME280;4395;48.554;8.820;2023-02-10T07:54:01;97840.50;;;-2.67;100.00
8717;BME280;4395;48.554;8.820;2023-02-10T07:56:04;97791.28;;;-2.99;100.00
8717;BME280;4395;48.554;8.820;2023-02-10T07:58:07;97836.34;;;-2.58;100.00
8717;BME280;4395;48.554;8.820;2023-02-10T08:00:11;97840.50;;;-2.45;100.00
8717;BME280;4395;48.554;8.820;2023-02-10T08:02:15;97830.41;;;-2.40;100.00
8717;BME280;4395;48.554;8.820;2023-02-10T08:04:19;97841.38;;;-2.23;100.00
8717;BME280;4395;48.554;8.820;2023-02-10T08:06:23;97819.38;;;-2.34;100.00
8717;BME280;4395;48.554;8.820;2023-02-10T08:08:26;97833.44;;;-2.12;100.00
8717;BME280;4395;48.554;8.820;2023-02-10T08:10:29;97839.59;;;-2.02;100.00
8717;BME280;4395;48.554;8.820;2023-02-10T08:12:32;97846.03;;;-1.95;100.00
8717;BME280;4395;48.554;8.820;2023-02-10T08:14:35;97836.41;;;-1.85;100.00
8717;BME280;4395;48.554;8.820;2023-02-10T08:16:38;97809.84;;;-1.93;100.00
8717;BME280;4395;48.554;8.820;2023-02-10T08:18:41;97841.63;;;-1.74;100.00
8717;BME280;4395;48.554;8.820;2023-02-10T08:20:45;97844.97;;;-1.72;100.00
8717;BME280;4395;48.554;8.820;2023-02-10T08:22:48;97843.22;;;-1.62;100.00
8717;BME280;4395;48.554;8.820;2023-02-10T08:24:55;97842.13;;;-1.59;100.00
8717;BME280;4395;48.554;8.820;2023-02-10T08:26:58;97846.31;;;-1.56;100.00
8717;BME280;4395;48.554;8.820;2023-02-10T08:29:00;97834.81;;;-1.76;100.00
8717;BME280;4395;48.554;8.820;2023-02-10T08:31:05;97847.00;;;-1.54;100.00
8717;BME280;4395;48.554;8.820;2023-02-10T08:33:08;97854.28;;;-1.47;100.00
8717;BME280;4395;48.554;8.820;2023-02-10T08:35:11;97843.34;;;-1.42;100.00
8717;BME280;4395;48.554;8.820;2023-02-10T08:37:16;97854.06;;;-1.34;100.00
8717;BME280;4395;48.554;8.820;2023-02-10T08:39:19;97862.59;;;-1.21;100.00
8717;BME280;4395;48.554;8.820;2023-02-10T08:41:23;97822.97;;;-1.31;100.00
8717;BME280;4395;48.554;8.820;2023-02-10T08:43:27;97848.66;;;-1.02;100.00
8717;BME280;4395;48.554;8.820;2023-02-10T08:45:30;97858.28;;;-0.91;100.00
8717;BME280;4395;48.554;8.820;2023-02-10T08:47:33;97817.38;;;-1.07;100.00
8717;BME280;4395;48.554;8.820;2023-02-10T08:49:36;97857.38;;;-0.71;100.00
8717;BME280;4395;48.554;8.820;2023-02-10T08:51:39;97857.28;;;-0.60;100.00
8717;BME280;4395;48.554;8.820;2023-02-10T08:53:43;97800.91;;;-0.89;100.00
8717;BME280;4395;48.554;8.820;2023-02-10T08:55:55;97864.97;;;-0.38;100.00
8717;BME280;4395;48.554;8.820;2023-02-10T08:58:01;97859.97;;;-0.31;100.00
8717;BME280;4395;48.554;8.820;2023-02-10T09:00:04;97861.94;;;-0.23;100.00
8717;BME280;4395;48.554;8.820;2023-02-10T09:02:09;97853.19;;;-0.14;100.00
8717;BME280;4395;48.554;8.820;2023-02-10T09:04:12;97849.44;;;-0.12;100.00
8717;BME280;4395;48.554;8.820;2023-02-10T09:06:17;97850.53;;;-0.05;100.00
8717;BME280;4395;48.554;8.820;2023-02-10T09:08:20;97847.78;;;0.16;100.00
8717;BME280;4395;48.554;8.820;2023-02-10T09:10:24;97856.00;;;0.32;100.00
8717;BME280;4395;48.554;8.820;2023-02-10T09:12:27;97856.25;;;0.49;100.00
8717;BME280;4395;48.554;8.820;2023-02-10T09:14:30;97846.88;;;0.64;100.00
8717;BME280;4395;48.554;8.820;2023-02-10T09:16:33;97811.84;;;0.43;100.00
8717;BME280;4395;48.554;8.820;2023-02-10T09:18:36;97859.19;;;0.92;100.00
8717;BME280;4395;48.554;8.820;2023-02-10T09:20:39;97849.94;;;1.06;100.00
8717;BME280;4395;48.554;8.820;2023-02-10T09:22:42;97850.19;;;1.13;100.00
8717;BME280;4395;48.554;8.820;2023-02-10T09:24:45;97848.03;;;1.26;100.00
8717;BME280;4395;48.554;8.820;2023-02-10T09:26:50;97850.66;;;1.36;100.00
8717;BME280;4395;48.554;8.820;2023-02-10T09:28:53;97787.81;;;1.01;100.00
8717;BME280;4395;48.554;8.820;2023-02-10T09:30:56;97855.69;;;1.56;100.00
8717;BME280;4395;48.554;8.820;2023-02-10T09:32:58;97842.75;;;1.71;100.00
8717;BME280;4395;48.554;8.820;2023-02-10T09:35:01;97858.31;;;1.84;100.00
8717;BME280;4395;48.554;8.820;2023-02-10T09:37:04;97855.44;;;1.95;100.00
8717;BME280;4395;48.554;8.820;2023-02-10T09:39:07;97844.38;;;2.00;100.00
8717;BME280;4395;48.554;8.820;2023-02-10T09:41:19;97825.56;;;1.57;100.00
8717;BME280;4395;48.554;8.820;2023-02-10T09:43:51;97806.94;;;1.85;100.00
8717;BME280;4395;48.554;8.820;2023-02-10T09:46:01;97755.44;;;1.70;100.00
8717;BME280;4395;48.554;8.820;2023-02-10T09:48:24;97862.09;;;2.35;99.88
8717;BME280;4395;48.554;8.820;2023-02-10T09:50:42;97865.66;;;2.43;100.00
8717;BME280;4395;48.554;8.820;2023-02-10T09:52:55;97819.09;;;2.31;100.00
8717;BME280;4395;48.554;8.820;2023-02-10T09:55:00;97857.50;;;2.80;100.00
8717;BME280;4395;48.554;8.820;2023-02-10T09:57:05;97861.13;;;3.05;98.16
8717;BME280;4395;48.554;8.820;2023-02-10T09:59:15;97862.69;;;3.16;95.99
8717;BME280;4395;48.554;8.820;2023-02-10T10:01:21;97870.25;;;3.37;95.85
8717;BME280;4395;48.554;8.820;2023-02-10T10:03:28;97864.50;;;3.49;93.89
8717;BME280;4395;48.554;8.820;2023-02-10T10:05:45;97860.38;;;3.63;93.22
8717;BME280;4395;48.554;8.820;2023-02-10T10:07:53;97867.53;;;3.63;94.01
8717;BME280;4395;48.554;8.820;2023-02-10T10:09:59;97863.13;;;3.87;91.17
8717;BME280;4395;48.554;8.820;2023-02-10T10:12:04;97821.84;;;3.75;91.06
8717;BME280;4395;48.554;8.820;2023-02-10T10:14:18;97865.97;;;4.10;90.11
8717;BME280;4395;48.554;8.820;2023-02-10T10:16:38;97865.16;;;4.18;89.61
8717;BME280;4395;48.554;8.820;2023-02-10T10:18:50;97740.22;;;3.68;89.27
8717;BME280;4395;48.554;8.820;2023-02-10T10:21:02;97864.50;;;4.48;87.76
8717;BME280;4395;48.554;8.820;2023-02-10T10:23:22;97856.53;;;4.57;86.42
8717;BME280;4395;48.554;8.820;2023-02-10T10:25:48;97859.34;;;4.63;82.51
8717;BME280;4395;48.554;8.820;2023-02-10T10:27:57;97848.00;;;4.85;81.30
8717;BME280;4395;48.554;8.820;2023-02-10T10:30:07;97789.09;;;4.64;81.89
8717;BME280;4395;48.554;8.820;2023-02-10T10:32:15;97843.94;;;5.14;80.39
8717;BME280;4395;48.554;8.820;2023-02-10T10:34:21;97858.41;;;5.36;79.02
8717;BME280;4395;48.554;8.820;2023-02-10T10:36:31;97859.56;;;5.33;78.53
8717;BME280;4395;48.554;8.820;2023-02-10T10:38:38;97858.66;;;5.57;77.44
8717;BME280;4395;48.554;8.820;2023-02-10T10:40:46;97854.59;;;5.69;76.45
8717;BME280;4395;48.554;8.820;2023-02-10T10:42:52;97857.91;;;5.71;74.41
8717;BME280;4395;48.554;8.820;2023-02-10T10:45:07;97848.94;;;5.64;73.49
8717;BME280;4395;48.554;8.820;2023-02-10T10:47:18;97846.19;;;5.80;72.83
8717;BME280;4395;48.554;8.820;2023-02-10T10:49:23;97848.81;;;6.20;70.95
8717;BME280;4395;48.554;8.820;2023-02-10T10:51:26;97836.41;;;6.50;69.20
8717;BME280;4395;48.554;8.820;2023-02-10T10:53:36;97836.41;;;6.50;66.46
8717;BME280;4395;48.554;8.820;2023-02-10T10:55:41;97836.81;;;6.61;66.95
8717;BME280;4395;48.554;8.820;2023-02-10T10:57:45;97832.88;;;6.72;65.41
8717;BME280;4395;48.554;8.820;2023-02-10T10:59:51;97827.56;;;6.87;64.49
8717;BME280;4395;48.554;8.820;2023-02-10T11:01:57;97827.56;;;7.01;63.03
8717;BME280;4395;48.554;8.820;2023-02-10T11:04:09;97843.16;;;6.98;60.15
8717;BME280;4395;48.554;8.820;2023-02-10T11:06:15;97834.13;;;7.14;61.10
8717;BME280;4395;48.554;8.820;2023-02-10T11:08:22;97838.28;;;7.31;59.46
8717;BME280;4395;48.554;8.820;2023-02-10T11:10:30;97828.78;;;7.43;58.48
8717;BME280;4395;48.554;8.820;2023-02-10T11:12:37;97771.25;;;7.18;56.29
8717;BME280;4395;48.554;8.820;2023-02-10T11:14:43;97821.56;;;7.58;55.75
8717;BME280;4395;48.554;8.820;2023-02-10T11:16:49;97766.03;;;7.46;55.81
8717;BME280;4395;48.554;8.820;2023-02-10T11:18:55;97815.09;;;7.82;56.51
8717;BME280;4395;48.554;8.820;2023-02-10T11:21:01;97791.38;;;7.64;55.26
8717;BME280;4395;48.554;8.820;2023-02-10T11:23:12;97805.41;;;8.02;55.57
8717;BME280;4395;48.554;8.820;2023-02-10T11:25:25;97820.47;;;8.25;55.23
8717;BME280;4395;48.554;8.820;2023-02-10T11:27:30;97808.91;;;8.39;53.61